Time;durP1;ratioP1;P1;durP2;ratioP2;P2;SDS_P1;SDS_P2;PMS_P1;PMS_P2;Temp;Humidity;BMP_temperature;BMP_pressure;BME280_temperature;BME280_humidity;BME280_pressure;Samples;Min_cycle;Max_cycle;Signal;HPM_P1;HPM_P2
2021/11/07 00:00:23;;;;;;;13.80;10.80;;;3.80;99.90;;;;;;5016822;28;20388;-57
2021/11/07 00:05:28;;;;;;;13.90;11.10;;;4.10;99.90;;;;;;5036715;28;20383;-56
2021/11/07 00:10:36;;;;;;;11.63;9.33;;;4.20;99.90;;;;;;5035827;28;20402;-58
2021/11/07 00:13:25;;;;;;;10.40;9.30;;;4.30;99.90;;;;;;5036388;28;20238;-57
2021/11/07 00:15:53;;;;;;;11.20;8.67;;;4.20;99.90;;;;;;5012456;28;20482;-58
2021/11/07 00:18:26;;;;;;;13.50;10.80;;;4.10;99.90;;;;;;5012700;28;21026;-58
2021/11/07 00:21:05;;;;;;;10.43;8.60;;;4.00;99.90;;;;;;5016597;28;20399;-57
2021/11/07 00:28:51;;;;;;;9.67;8.67;;;3.90;99.90;;;;;;5015941;28;20762;-58
2021/11/07 00:36:27;;;;;;;10.40;8.33;;;4.00;99.90;;;;;;5035784;28;20487;-58
2021/11/07 00:41:37;;;;;;;12.43;9.40;;;4.20;99.90;;;;;;5035634;28;20402;-58
2021/11/07 00:44:07;;;;;;;12.40;9.73;;;4.20;99.90;;;;;;5036135;28;20414;-57
2021/11/07 00:46:45;;;;;;;13.47;10.70;;;4.20;99.90;;;;;;5035379;28;20859;-57
2021/11/07 00:49:14;;;;;;;12.37;8.97;;;4.00;99.90;;;;;;5035200;28;20378;-58
2021/11/07 00:54:24;;;;;;;10.60;8.90;;;4.10;99.90;;;;;;5035759;28;20382;-54
2021/11/07 00:56:53;;;;;;;9.10;8.17;;;4.00;99.90;;;;;;5035268;28;20834;-56
2021/11/07 01:02:03;;;;;;;11.10;9.30;;;4.00;99.90;;;;;;5035476;28;20525;-55
2021/11/07 01:04:29;;;;;;;12.30;10.50;;;4.00;99.90;;;;;;5035057;28;20182;-56
2021/11/07 01:06:55;;;;;;;11.33;10.13;;;4.00;99.90;;;;;;5035117;28;20426;-58
2021/11/07 01:09:21;;;;;;;11.43;10.23;;;3.90;99.90;;;;;;5035048;28;20402;-55
2021/11/07 01:11:47;;;;;;;12.23;9.23;;;3.80;99.90;;;;;;5035445;28;20186;-57
2021/11/07 01:14:13;;;;;;;10.83;9.73;;;3.70;99.90;;;;;;5035284;28;20576;-58
2021/11/07 01:16:40;;;;;;;11.43;9.20;;;3.80;99.90;;;;;;5035006;28;20206;-59
2021/11/07 01:19:06;;;;;;;10.93;8.70;;;3.80;99.90;;;;;;5034705;28;20815;-57
2021/11/07 01:21:35;;;;;;;11.93;9.10;;;3.80;99.90;;;;;;5034845;28;20405;-58
2021/11/07 01:24:08;;;;;;;13.30;10.23;;;3.70;99.90;;;;;;5035285;28;20402;-56
2021/11/07 01:26:42;;;;;;;12.93;9.87;;;3.60;99.90;;;;;;5034731;28;20480;-58
2021/11/07 01:29:17;;;;;;;12.27;10.20;;;3.50;99.90;;;;;;5035049;28;20436;-53
2021/11/07 01:31:44;;;;;;;10.10;8.70;;;3.70;99.90;;;;;;5034798;28;20470;-57
2021/11/07 01:37:18;;;;;;;13.23;9.17;;;4.00;99.90;;;;;;4997405;28;20471;-55
2021/11/07 01:45:22;;;;;;;10.70;8.00;;;4.00;99.90;;;;;;4995652;28;20741;-58
2021/11/07 01:47:40;;;;;;;8.60;7.70;;;4.10;99.90;;;;;;5007248;28;20218;-58
2021/11/07 01:50:07;;;;;;;8.60;7.80;;;4.30;99.90;;;;;;5034856;28;20394;-58
2021/11/07 01:52:39;;;;;;;10.20;8.80;;;4.30;99.90;;;;;;5034431;28;20398;-57
2021/11/07 01:55:05;;;;;;;12.30;8.73;;;4.40;99.90;;;;;;5034121;28;20386;-58
2021/11/07 01:57:34;;;;;;;9.83;8.63;;;4.40;99.90;;;;;;5009227;28;20997;-57
2021/11/07 02:00:04;;;;;;;10.17;9.07;;;4.50;99.90;;;;;;4994791;28;20404;-58
2021/11/07 02:02:34;;;;;;;9.40;8.40;;;4.50;99.90;;;;;;4994809;28;20392;-57
2021/11/07 02:05:01;;;;;;;10.60;9.10;;;4.50;99.90;;;;;;4993528;28;20404;-57
2021/11/07 02:07:26;;;;;;;12.03;10.30;;;4.60;99.90;;;;;;4994867;28;20796;-55
2021/11/07 02:09:52;;;;;;;9.77;8.77;;;4.40;99.90;;;;;;4994359;28;20404;-57
2021/11/07 02:12:18;;;;;;;12.57;10.30;;;4.40;99.90;;;;;;4994658;28;20268;-58
2021/11/07 02:14:45;;;;;;;10.87;9.00;;;4.20;99.90;;;;;;4994710;28;20494;-56
2021/11/07 02:17:12;;;;;;;9.90;8.90;;;4.10;99.90;;;;;;5004885;28;20199;-55
2021/11/07 02:19:41;;;;;;;10.90;9.60;;;4.20;99.90;;;;;;5032416;28;20969;-59
2021/11/07 02:22:07;;;;;;;11.40;9.20;;;4.40;99.90;;;;;;5033673;28;20409;-58
2021/11/07 02:24:35;;;;;;;14.13;10.20;;;4.60;99.90;;;;;;5033635;28;20414;-58
2021/11/07 02:27:01;;;;;;;11.97;9.37;;;4.70;99.90;;;;;;5033692;28;20286;-55
2021/11/07 02:29:28;;;;;;;13.17;10.00;;;4.80;99.90;;;;;;5034174;28;20429;-54
2021/11/07 02:31:57;;;;;;;13.23;11.10;;;4.60;99.90;;;;;;5033774;28;20601;-55
2021/11/07 02:34:27;;;;;;;11.60;8.73;;;4.60;99.90;;;;;;5033597;28;20414;-55
2021/11/07 02:36:54;;;;;;;12.20;10.20;;;4.70;99.90;;;;;;5033884;28;20962;-55
2021/11/07 02:39:20;;;;;;;10.13;9.07;;;4.80;99.90;;;;;;5033471;28;20410;-55
2021/11/07 02:41:47;;;;;;;9.77;8.30;;;4.80;99.90;;;;;;5033200;28;20878;-57
2021/11/07 02:44:37;;;;;;;11.53;9.57;;;4.80;99.90;;;;;;5033674;28;20406;-57
2021/11/07 02:47:06;;;;;;;11.97;9.40;;;4.80;99.90;;;;;;5033491;28;20458;-54
2021/11/07 02:49:34;;;;;;;10.53;9.37;;;4.80;99.90;;;;;;5033060;28;20414;-56
2021/11/07 02:52:02;;;;;;;12.03;9.87;;;4.70;99.90;;;;;;5033769;28;20817;-53
2021/11/07 02:54:28;;;;;;;16.13;10.77;;;4.60;99.90;;;;;;5032299;28;20409;-55
2021/11/07 02:56:57;;;;;;;10.43;9.33;;;4.60;99.90;;;;;;5033036;28;20430;-56
2021/11/07 02:59:32;;;;;;;14.50;12.20;;;4.60;99.90;;;;;;5033292;28;20413;-57
2021/11/07 03:01:58;;;;;;;11.63;10.27;;;4.40;99.90;;;;;;5032253;28;20421;-55
2021/11/07 03:04:26;;;;;;;13.37;11.83;;;4.50;99.90;;;;;;5033841;28;20413;-58
2021/11/07 03:06:51;;;;;;;12.97;9.87;;;4.50;99.90;;;;;;5033052;28;20418;-54
2021/11/07 03:09:22;;;;;;;14.80;11.83;;;4.40;99.90;;;;;;5033525;28;20910;-54
2021/11/07 03:11:49;;;;;;;15.37;11.80;;;4.30;99.90;;;;;;5033142;28;20163;-55
2021/11/07 03:14:22;;;;;;;14.83;11.47;;;4.20;99.90;;;;;;5033758;28;20406;-56
2021/11/07 03:16:48;;;;;;;15.10;11.17;;;4.20;99.90;;;;;;5033106;28;20433;-54
2021/11/07 03:19:15;;;;;;;13.07;11.40;;;4.30;99.90;;;;;;5033632;28;20409;-56
2021/11/07 03:21:43;;;;;;;16.83;12.70;;;4.30;99.90;;;;;;5033037;28;20899;-54
2021/11/07 03:24:11;;;;;;;14.20;12.30;;;4.10;99.90;;;;;;5013729;28;20430;-55
2021/11/07 03:26:37;;;;;;;15.30;12.93;;;4.20;99.90;;;;;;4997221;28;20436;-55
2021/11/07 03:29:05;;;;;;;13.53;10.80;;;4.30;99.90;;;;;;4996616;28;20404;-54
2021/11/07 03:34:01;;;;;;;12.80;11.30;;;4.40;99.90;;;;;;5017578;28;20415;-57
2021/11/07 03:36:32;;;;;;;13.37;11.97;;;4.40;99.90;;;;;;5018242;28;20480;-55
2021/11/07 03:38:58;;;;;;;15.83;12.97;;;4.50;99.90;;;;;;5021187;28;20439;-57
2021/11/07 03:41:23;;;;;;;14.20;11.60;;;4.50;99.90;;;;;;5018433;28;20414;-55
2021/11/07 03:43:49;;;;;;;10.97;9.83;;;4.60;99.90;;;;;;5019318;28;20176;-54
2021/11/07 03:46:16;;;;;;;20.10;14.83;;;4.60;99.90;;;;;;5020702;28;20203;-54
2021/11/07 03:48:42;;;;;;;14.33;11.33;;;4.50;99.90;;;;;;5020609;28;20179;-57
2021/11/07 03:51:12;;;;;;;13.37;11.97;;;4.50;99.90;;;;;;5031494;28;20426;-58
2021/11/07 03:53:38;;;;;;;13.37;11.97;;;4.50;99.90;;;;;;5038070;28;20159;-56
2021/11/07 03:56:04;;;;;;;14.37;12.37;;;4.50;99.90;;;;;;5037075;28;20438;-57
2021/11/07 03:58:30;;;;;;;14.27;12.30;;;4.50;99.90;;;;;;5037188;28;20503;-56
2021/11/07 04:00:56;;;;;;;11.20;9.93;;;4.50;99.90;;;;;;5035766;28;20167;-55
2021/11/07 04:03:21;;;;;;;14.93;12.60;;;4.40;99.90;;;;;;5015372;28;20180;-57
2021/11/07 04:05:47;;;;;;;15.17;12.90;;;4.30;99.90;;;;;;5016931;28;20525;-58
2021/11/07 04:08:13;;;;;;;13.70;12.00;;;4.40;99.90;;;;;;5017071;28;20411;-55
2021/11/07 04:10:39;;;;;;;12.67;11.30;;;4.40;99.90;;;;;;5016635;28;20175;-57
2021/11/07 04:13:05;;;;;;;13.70;11.37;;;4.20;99.90;;;;;;5016936;28;20503;-56
2021/11/07 04:15:32;;;;;;;14.57;12.30;;;4.10;99.90;;;;;;5017204;28;20180;-57
2021/11/07 04:17:58;;;;;;;10.73;9.47;;;4.10;99.90;;;;;;5017081;28;20997;-57
2021/11/07 04:20:23;;;;;;;12.33;10.60;;;4.20;99.90;;;;;;5017011;28;20410;-54
2021/11/07 04:22:49;;;;;;;12.50;11.20;;;4.30;99.90;;;;;;5016956;28;20411;-56
2021/11/07 04:25:16;;;;;;;12.00;10.20;;;4.30;99.90;;;;;;5015900;28;20172;-55
2021/11/07 04:27:42;;;;;;;12.40;11.10;;;4.40;99.90;;;;;;5035329;28;20496;-53
2021/11/07 04:30:08;;;;;;;14.60;11.90;;;4.40;99.90;;;;;;5035103;28;20414;-55
2021/11/07 04:32:34;;;;;;;12.67;11.33;;;4.40;99.90;;;;;;5036354;28;20410;-57
2021/11/07 04:35:00;;;;;;;13.27;11.90;;;4.30;99.90;;;;;;5035895;28;20441;-55
2021/11/07 04:37:26;;;;;;;16.30;11.67;;;4.40;99.90;;;;;;5035747;28;20530;-57
2021/11/07 04:39:52;;;;;;;14.17;12.43;;;4.30;99.90;;;;;;5035718;28;20179;-58
2021/11/07 04:42:18;;;;;;;14.03;11.53;;;4.50;99.90;;;;;;5035658;28;20413;-54
2021/11/07 04:44:43;;;;;;;17.43;11.90;;;4.60;99.90;;;;;;5036098;28;20167;-58
2021/11/07 04:47:09;;;;;;;17.33;13.73;;;4.60;99.90;;;;;;5055832;22;20227;-58
2021/11/07 04:49:35;;;;;;;14.83;12.20;;;4.60;99.90;;;;;;5017867;28;20699;-54
2021/11/07 04:52:01;;;;;;;14.30;11.93;;;4.60;99.90;;;;;;5017577;28;20485;-53
2021/11/07 04:54:27;;;;;;;11.53;10.20;;;4.60;99.90;;;;;;5035540;28;20282;-53
2021/11/07 04:56:53;;;;;;;10.73;9.10;;;4.50;99.90;;;;;;5035402;28;20867;-53
2021/11/07 04:59:19;;;;;;;12.80;9.20;;;4.50;99.90;;;;;;5035000;28;20421;-58
2021/11/07 05:01:45;;;;;;;10.90;8.80;;;4.60;99.90;;;;;;5035309;28;20484;-57
2021/11/07 05:04:11;;;;;;;9.57;7.87;;;4.70;99.90;;;;;;5034730;28;20451;-56
2021/11/07 05:06:36;;;;;;;8.90;8.00;;;4.80;99.90;;;;;;5034972;28;20179;-59
2021/11/07 05:09:03;;;;;;;10.80;9.53;;;4.70;99.90;;;;;;5035415;28;20182;-56
2021/11/07 05:11:29;;;;;;;9.57;8.30;;;4.80;99.90;;;;;;5034938;28;20184;-57
2021/11/07 05:13:55;;;;;;;9.73;8.73;;;4.80;99.90;;;;;;5035008;28;20533;-57
2021/11/07 05:16:21;;;;;;;13.03;9.37;;;4.90;99.90;;;;;;5034728;28;20426;-57
2021/11/07 05:18:47;;;;;;;8.83;7.70;;;5.00;99.90;;;;;;5034801;28;20607;-54
2021/11/07 05:21:12;;;;;;;10.30;9.03;;;5.10;99.90;;;;;;5034646;28;20422;-56
2021/11/07 05:23:38;;;;;;;10.30;9.30;;;5.10;99.90;;;;;;5017368;28;20167;-55
2021/11/07 05:26:04;;;;;;;11.53;10.33;;;5.20;99.90;;;;;;5035006;28;20160;-58
2021/11/07 05:28:30;;;;;;;13.77;12.07;;;5.20;99.90;;;;;;5034539;28;20414;-59
2021/11/07 05:30:56;;;;;;;12.57;11.27;;;5.30;99.90;;;;;;5034669;28;20410;-58
2021/11/07 05:33:22;;;;;;;12.70;10.80;;;5.30;99.90;;;;;;5033922;28;20203;-58
2021/11/07 05:35:48;;;;;;;10.50;8.63;;;5.20;99.90;;;;;;5034407;28;20468;-59
2021/11/07 05:38:14;;;;;;;9.03;7.70;;;5.20;99.90;;;;;;5034407;28;20203;-59
2021/11/07 05:40:40;;;;;;;10.70;8.90;;;5.10;99.90;;;;;;5034463;28;20441;-58
2021/11/07 05:43:05;;;;;;;12.60;10.63;;;5.20;99.90;;;;;;5034085;28;20635;-57
2021/11/07 05:45:31;;;;;;;11.40;9.40;;;5.10;99.90;;;;;;5016759;28;20190;-56
2021/11/07 05:47:57;;;;;;;10.93;9.80;;;5.10;99.90;;;;;;5033859;28;20216;-58
2021/11/07 05:50:24;;;;;;;9.40;8.00;;;5.10;99.90;;;;;;5033508;28;20418;-58
2021/11/07 05:52:51;;;;;;;11.03;9.83;;;5.20;99.90;;;;;;5034346;28;20596;-59
2021/11/07 05:55:17;;;;;;;10.67;8.47;;;5.20;99.90;;;;;;5031978;28;20452;-59
2021/11/07 05:57:43;;;;;;;11.47;9.93;;;5.20;99.90;;;;;;5033080;28;20453;-59
2021/11/07 06:00:11;;;;;;;12.80;10.37;;;5.20;99.90;;;;;;5033958;28;20186;-59
2021/11/07 06:02:37;;;;;;;12.73;10.63;;;5.10;99.90;;;;;;5033301;28;20407;-57
2021/11/07 06:05:03;;;;;;;12.40;10.30;;;5.10;99.90;;;;;;5034135;28;20412;-59
2021/11/07 06:07:29;;;;;;;16.03;10.87;;;5.00;99.90;;;;;;5033740;28;20434;-59
2021/11/07 06:09:54;;;;;;;12.57;9.97;;;5.00;99.90;;;;;;5033733;28;20894;-58
2021/11/07 06:12:20;;;;;;;11.60;9.30;;;5.00;99.90;;;;;;5033993;28;20255;-57
2021/11/07 06:14:46;;;;;;;11.87;9.43;;;5.10;99.90;;;;;;5033579;28;20254;-57
2021/11/07 06:17:12;;;;;;;12.40;10.90;;;5.10;99.90;;;;;;5033333;28;20308;-59
2021/11/07 06:19:38;;;;;;;13.77;11.57;;;5.00;99.90;;;;;;5033680;28;20164;-57
2021/11/07 06:22:04;;;;;;;13.50;11.63;;;5.00;99.90;;;;;;5033514;28;20428;-58
2021/11/07 06:24:32;;;;;;;13.90;11.57;;;5.00;99.90;;;;;;5033660;28;20497;-56
2021/11/07 06:26:58;;;;;;;14.73;11.70;;;4.70;99.90;;;;;;5033763;28;20466;-59
2021/11/07 06:29:25;;;;;;;22.73;18.13;;;4.60;99.90;;;;;;5033529;28;20433;-59
2021/11/07 06:31:52;;;;;;;19.97;15.40;;;4.60;99.90;;;;;;5033058;28;20879;-58
2021/11/07 06:34:20;;;;;;;17.10;14.10;;;4.70;99.90;;;;;;5032450;28;20805;-57
2021/11/07 06:36:46;;;;;;;15.53;12.33;;;4.70;99.90;;;;;;5033039;28;20843;-59
2021/11/07 06:39:12;;;;;;;15.20;12.83;;;4.70;99.90;;;;;;5033358;28;20407;-59
2021/11/07 06:41:39;;;;;;;16.33;13.00;;;4.80;99.90;;;;;;5033465;28;20409;-59
2021/11/07 06:44:06;;;;;;;15.20;12.00;;;4.90;99.90;;;;;;5033962;28;20891;-58
2021/11/07 06:46:35;;;;;;;22.67;16.80;;;4.80;99.90;;;;;;5033288;28;20548;-59
2021/11/07 06:49:03;;;;;;;26.47;20.53;;;4.60;99.90;;;;;;5033147;28;20402;-59
2021/11/07 06:51:29;;;;;;;20.50;16.10;;;4.70;99.90;;;;;;5033032;28;20421;-58
2021/11/07 06:53:54;;;;;;;16.17;12.20;;;4.90;99.90;;;;;;5033791;28;20414;-54
2021/11/07 06:56:20;;;;;;;29.00;24.17;;;4.90;99.90;;;;;;5033656;28;20563;-55
2021/11/07 06:58:46;;;;;;;64.93;48.63;;;5.00;99.90;;;;;;5033606;28;20199;-53
2021/11/07 07:01:11;;;;;;;18.30;16.27;;;4.90;99.90;;;;;;5033611;28;20171;-52
2021/11/07 07:03:37;;;;;;;19.27;14.50;;;4.90;99.90;;;;;;5036984;28;20178;-57
2021/11/07 07:06:03;;;;;;;21.53;17.30;;;4.90;99.90;;;;;;5037546;28;20540;-56
2021/11/07 07:08:39;;;;;;;15.80;13.10;;;5.00;99.90;;;;;;5037517;28;20229;-52
2021/11/07 07:11:09;;;;;;;23.43;20.10;;;5.10;99.90;;;;;;5037468;28;20390;-57
2021/11/07 07:13:43;;;;;;;23.03;20.50;;;5.20;99.90;;;;;;5037478;28;20402;-55
2021/11/07 07:16:22;;;;;;;15.63;13.90;;;5.30;99.90;;;;;;5037665;28;20493;-58
2021/11/07 07:21:33;;;;;;;17.17;13.17;;;5.40;99.90;;;;;;5037318;28;20395;-57
2021/11/07 07:31:49;;;;;;;13.40;11.63;;;5.60;99.90;;;;;;5037360;28;20397;-57
2021/11/07 07:34:20;;;;;;;13.50;12.10;;;5.60;99.90;;;;;;5036938;28;20428;-58
2021/11/07 07:36:46;;;;;;;14.80;13.00;;;5.70;99.90;;;;;;5036419;28;20430;-57
2021/11/07 07:39:12;;;;;;;16.90;13.73;;;5.90;99.90;;;;;;5036737;28;20425;-58
2021/11/07 07:41:38;;;;;;;18.10;12.73;;;6.00;99.90;;;;;;5027759;28;20674;-58
2021/11/07 07:44:07;;;;;;;15.80;11.97;;;6.10;99.90;;;;;;4999351;28;20184;-58
2021/11/07 07:46:38;;;;;;;17.57;14.70;;;6.10;99.90;;;;;;5017066;28;20823;-55
2021/11/07 07:49:04;;;;;;;14.93;12.67;;;6.20;99.90;;;;;;5016891;28;20959;-57
2021/11/07 07:51:30;;;;;;;13.23;11.83;;;6.20;99.90;;;;;;5030777;28;20953;-58
2021/11/07 07:54:00;;;;;;;16.47;13.17;;;6.40;99.90;;;;;;5036551;28;20402;-58
2021/11/07 07:56:26;;;;;;;15.60;13.23;;;6.60;99.90;;;;;;5036494;28;20433;-58
2021/11/07 07:58:52;;;;;;;13.90;12.30;;;6.80;99.90;;;;;;5036264;28;20805;-58
2021/11/07 08:01:17;;;;;;;15.33;12.77;;;7.00;99.90;;;;;;5036278;28;20409;-58
2021/11/07 08:03:43;;;;;;;14.00;12.23;;;7.20;99.90;;;;;;5035746;28;20206;-57
2021/11/07 08:06:09;;;;;;;13.77;12.33;;;7.30;99.90;;;;;;5035666;28;20176;-58
2021/11/07 08:08:35;;;;;;;13.87;11.53;;;7.50;99.90;;;;;;5036671;28;20185;-58
2021/11/07 08:11:01;;;;;;;14.47;12.97;;;7.20;99.90;;;;;;5036360;28;20176;-55
2021/11/07 08:13:27;;;;;;;13.60;12.10;;;7.30;99.90;;;;;;5035147;28;20265;-56
2021/11/07 08:15:53;;;;;;;14.73;12.33;;;7.30;99.90;;;;;;5036256;28;20497;-58
2021/11/07 08:18:20;;;;;;;14.70;11.47;;;7.30;99.90;;;;;;5035686;28;20445;-57
2021/11/07 08:20:46;;;;;;;14.40;11.33;;;7.40;99.90;;;;;;5034668;28;20435;-59
2021/11/07 08:23:13;;;;;;;12.57;10.33;;;7.40;99.90;;;;;;5035440;28;20933;-57
2021/11/07 08:25:39;;;;;;;12.53;10.47;;;7.70;99.90;;;;;;5036233;28;20403;-55
2021/11/07 08:28:06;;;;;;;10.50;9.40;;;7.70;99.90;;;;;;5035874;28;20440;-55
2021/11/07 08:30:35;;;;;;;9.97;8.97;;;7.60;99.90;;;;;;5035704;28;20417;-51
2021/11/07 08:33:01;;;;;;;10.90;9.47;;;7.30;99.90;;;;;;5035520;28;20934;-54
2021/11/07 08:35:27;;;;;;;11.23;8.40;;;7.30;99.90;;;;;;5035753;28;20785;-52
2021/11/07 08:37:59;;;;;;;9.40;8.40;;;7.40;99.90;;;;;;5035351;28;20455;-52
2021/11/07 08:40:32;;;;;;;9.80;8.60;;;7.50;99.90;;;;;;5035881;28;20771;-56
2021/11/07 08:54:19;;;;;;;9.00;8.00;;;7.50;99.90;;;;;;5035468;28;20403;-57
2021/11/07 09:10:06;;;;;;;7.30;6.60;;;8.00;99.90;;;;;;5035562;28;20397;-58
2021/11/07 09:12:32;;;;;;;7.87;7.07;;;8.00;99.90;;;;;;5035375;28;20398;-57
2021/11/07 09:14:58;;;;;;;8.70;6.93;;;8.10;99.90;;;;;;5017780;28;20424;-54
2021/11/07 09:17:24;;;;;;;8.23;7.27;;;8.50;99.90;;;;;;5035028;28;20466;-53
2021/11/07 09:19:53;;;;;;;8.30;7.40;;;8.70;99.90;;;;;;5034913;28;20417;-57
2021/11/07 09:25:08;;;;;;;8.60;7.07;;;9.20;99.90;;;;;;5034986;28;20384;-56
2021/11/07 09:30:13;;;;;;;7.40;6.50;;;9.30;99.90;;;;;;5035061;28;20398;-56
2021/11/07 09:35:27;;;;;;;7.17;6.47;;;9.70;99.90;;;;;;5035166;28;20935;-59
2021/11/07 09:40:20;;;;;;;5.90;5.20;;;9.30;99.90;;;;;;5035154;28;20497;-59
2021/11/07 09:47:49;;;;;;;5.70;4.90;;;9.80;99.90;;;;;;5028116;28;20550;-59
2021/11/07 09:50:16;;;;;;;5.93;5.33;;;10.10;99.90;;;;;;5034319;28;20394;-57
2021/11/07 09:52:49;;;;;;;6.37;5.77;;;10.00;99.90;;;;;;5033963;28;20433;-57
2021/11/07 09:55:17;;;;;;;6.00;5.40;;;9.90;99.90;;;;;;5034423;28;20394;-58
2021/11/07 09:57:44;;;;;;;6.03;4.80;;;10.30;99.90;;;;;;5034275;28;20468;-58
2021/11/07 10:00:14;;;;;;;5.17;4.67;;;10.10;99.90;;;;;;5030913;28;20502;-58
2021/11/07 10:02:40;;;;;;;5.07;3.80;;;10.40;99.90;;;;;;5033386;28;20381;-57
2021/11/07 10:05:08;;;;;;;4.87;3.80;;;10.60;99.90;;;;;;5034328;28;20417;-57
2021/11/07 10:07:37;;;;;;;3.40;3.10;;;10.50;99.90;;;;;;5033732;28;20691;-57
2021/11/07 10:10:18;;;;;;;4.87;4.40;;;10.90;99.90;;;;;;5034263;28;20414;-53
2021/11/07 10:12:56;;;;;;;4.90;3.80;;;11.20;99.90;;;;;;5034182;28;20483;-56
2021/11/07 10:15:24;;;;;;;5.10;3.40;;;11.00;99.90;;;;;;5016098;28;20502;-56
2021/11/07 10:17:56;;;;;;;3.37;3.07;;;10.90;99.90;;;;;;5027295;28;20468;-58
2021/11/07 10:20:32;;;;;;;5.07;4.10;;;11.20;99.90;;;;;;5014005;28;20388;-56
2021/11/07 10:23:06;;;;;;;4.23;3.80;;;11.40;99.90;;;;;;5013657;28;20437;-56
2021/11/07 10:25:44;;;;;;;3.50;3.20;;;11.20;99.90;;;;;;5013854;28;20408;-57
2021/11/07 10:28:15;;;;;;;3.60;3.30;;;11.40;99.90;;;;;;5014152;28;20917;-55
2021/11/07 10:30:46;;;;;;;3.40;3.10;;;11.70;99.90;;;;;;5013708;28;20414;-54
2021/11/07 10:33:28;;;;;;;3.30;2.90;;;11.80;99.90;;;;;;5023024;28;21012;-58
2021/11/07 10:39:04;;;;;;;3.00;2.70;;;11.80;99.90;;;;;;5033135;28;20464;-58
2021/11/07 10:47:16;;;;;;;3.23;2.33;;;12.60;99.90;;;;;;5060515;22;21143;-51
2021/11/07 10:52:32;;;;;;;2.70;2.50;;;14.40;99.90;;;;;;5033766;28;20735;-56
2021/11/07 10:54:59;;;;;;;4.30;3.10;;;14.00;99.50;;;;;;5033456;28;20400;-54
2021/11/07 10:57:28;;;;;;;3.30;3.00;;;13.60;99.90;;;;;;5026717;28;20488;-55
2021/11/07 11:00:17;;;;;;;2.40;2.20;;;13.80;99.90;;;;;;5013626;28;20461;-57
2021/11/07 11:02:47;;;;;;;4.00;3.00;;;13.20;99.90;;;;;;5013404;28;20378;-57
2021/11/07 11:05:22;;;;;;;10.27;2.90;;;12.70;99.90;;;;;;5013160;28;20391;-56
2021/11/07 11:07:56;;;;;;;3.60;2.73;;;12.50;99.90;;;;;;5013368;28;20423;-56
2021/11/07 11:10:29;;;;;;;2.83;2.30;;;12.80;99.90;;;;;;5013507;28;20422;-54
2021/11/07 11:13:21;;;;;;;3.00;2.30;;;13.00;99.90;;;;;;5013660;28;20430;-53
2021/11/07 11:28:07;;;;;;;2.10;1.90;;;13.20;99.90;;;;;;5013542;28;20431;-56
2021/11/07 11:31:05;;;;;;;2.77;2.37;;;13.40;99.90;;;;;;5013473;28;20388;-53
2021/11/07 11:33:41;;;;;;;2.03;1.83;;;13.20;99.90;;;;;;5012615;28;20409;-53
2021/11/07 11:36:29;;;;;;;2.00;1.80;;;13.50;99.90;;;;;;5013341;28;20449;-51
2021/11/07 11:39:04;;;;;;;2.03;1.87;;;13.40;99.90;;;;;;5011640;28;20470;-56
2021/11/07 11:41:43;;;;;;;2.57;1.70;;;13.30;99.90;;;;;;5012932;28;20392;-56
2021/11/07 11:44:12;;;;;;;2.50;1.80;;;13.00;99.90;;;;;;5013118;28;20414;-53
2021/11/07 11:46:59;;;;;;;4.40;1.63;;;13.00;99.90;;;;;;5012872;28;20418;-56
2021/11/07 11:55:12;;;;;;;1.77;1.47;;;13.20;99.90;;;;;;5016564;28;20407;-56
2021/11/07 12:00:27;;;;;;;1.20;1.10;;;13.30;99.90;;;;;;5015626;28;20903;-54
2021/11/07 12:03:01;;;;;;;1.03;0.90;;;13.20;99.90;;;;;;5016870;28;20371;-55
2021/11/07 12:05:41;;;;;;;1.73;1.50;;;13.10;99.90;;;;;;5013222;28;20759;-55
2021/11/07 12:08:08;;;;;;;1.47;1.30;;;13.80;99.90;;;;;;4995622;28;20499;-57
2021/11/07 12:10:48;;;;;;;1.40;1.13;;;14.70;99.90;;;;;;4996786;28;20410;-57
2021/11/07 12:13:59;;;;;;;2.33;1.30;;;15.60;99.70;;;;;;4996467;28;20397;-54
2021/11/07 12:17:07;;;;;;;1.93;0.93;;;16.00;99.20;;;;;;4993565;28;20428;-51
2021/11/07 12:19:42;;;;;;;0.90;0.70;;;16.20;99.30;;;;;;4997098;28;20394;-55
2021/11/07 12:22:16;;;;;;;1.20;1.10;;;17.50;97.60;;;;;;5010985;28;20421;-56
2021/11/07 12:24:48;;;;;;;0.97;0.73;;;18.00;96.20;;;;;;5016330;28;20398;-57
2021/11/07 12:27:28;;;;;;;1.63;1.07;;;17.10;96.70;;;;;;5016265;28;20460;-57
2021/11/07 12:30:23;;;;;;;1.00;0.90;;;16.40;97.70;;;;;;5015862;28;20430;-58
2021/11/07 12:32:51;;;;;;;1.40;0.90;;;16.20;98.40;;;;;;5015794;28;20401;-56
2021/11/07 12:35:39;;;;;;;1.67;1.10;;;16.40;97.70;;;;;;5015587;28;20809;-57
2021/11/07 12:41:11;;;;;;;1.50;1.07;;;17.80;97.00;;;;;;5015841;28;20903;-57
2021/11/07 12:43:43;;;;;;;0.90;0.77;;;17.80;96.30;;;;;;5015541;28;20843;-56
2021/11/07 12:46:31;;;;;;;1.00;0.70;;;17.80;96.50;;;;;;5015616;28;20411;-57
2021/11/07 12:49:21;;;;;;;1.70;1.17;;;17.20;97.90;;;;;;5015598;28;20454;-56
2021/11/07 12:52:12;;;;;;;2.47;0.90;;;16.90;97.80;;;;;;5007928;28;20502;-55
2021/11/07 12:54:41;;;;;;;1.00;0.90;;;16.90;98.60;;;;;;5014661;28;20405;-55
2021/11/07 12:57:18;;;;;;;2.60;1.30;;;18.00;97.70;;;;;;5015352;28;20795;-56
2021/11/07 12:59:45;;;;;;;1.23;0.93;;;18.10;96.40;;;;;;5014843;28;20395;-56
2021/11/07 13:02:32;;;;;;;1.57;0.90;;;17.60;96.60;;;;;;5015645;28;20502;-56
2021/11/07 13:05:22;;;;;;;1.57;1.00;;;18.00;97.20;;;;;;5015560;28;20498;-54
2021/11/07 13:08:06;;;;;;;1.27;0.90;;;18.10;96.50;;;;;;5015431;28;20415;-55
2021/11/07 13:27:18;;;;;;;2.30;0.80;;;14.80;99.90;;;;;;4982294;28;20569;-56
2021/11/07 13:30:03;;;;;;;1.20;0.80;;;14.20;99.90;;;;;;5006395;28;20815;-56
2021/11/07 13:32:30;;;;;;;1.80;0.97;;;13.70;99.90;;;;;;5015110;28;20380;-56
2021/11/07 13:35:19;;;;;;;1.00;0.90;;;13.50;99.90;;;;;;5014728;28;20411;-57
2021/11/07 13:37:57;;;;;;;1.53;1.00;;;13.60;99.90;;;;;;5014600;28;20948;-58
2021/11/07 13:40:31;;;;;;;2.33;1.57;;;14.00;99.90;;;;;;5014946;28;20393;-58
2021/11/07 13:43:05;;;;;;;2.03;1.07;;;13.90;99.90;;;;;;5014993;28;20386;-57
2021/11/07 13:45:33;;;;;;;2.67;1.60;;;13.90;99.90;;;;;;5014319;28;20497;-54
2021/11/07 13:48:01;;;;;;;1.97;1.30;;;13.90;99.90;;;;;;5014357;28;20507;-54
2021/11/07 13:50:32;;;;;;;1.03;0.93;;;13.80;99.90;;;;;;5014479;28;20931;-55
2021/11/07 13:52:59;;;;;;;2.23;1.70;;;13.60;99.90;;;;;;5015324;28;20473;-54
2021/11/07 13:55:28;;;;;;;1.67;1.00;;;13.50;99.90;;;;;;5014574;28;20840;-57
2021/11/07 13:57:56;;;;;;;1.30;1.03;;;13.40;99.90;;;;;;5014242;28;20447;-57
2021/11/07 14:00:26;;;;;;;1.60;1.17;;;13.40;99.90;;;;;;5013837;28;20472;-56
2021/11/07 14:02:56;;;;;;;1.10;1.00;;;13.40;99.90;;;;;;5013805;28;20410;-57
2021/11/07 14:05:22;;;;;;;1.30;1.00;;;13.50;99.90;;;;;;5013714;28;20403;-53
2021/11/07 14:08:06;;;;;;;1.13;1.03;;;13.30;99.90;;;;;;5000653;28;20808;-57
2021/11/07 14:10:34;;;;;;;2.77;1.10;;;13.10;99.90;;;;;;5014124;28;20859;-55
2021/11/07 14:13:07;;;;;;;1.77;1.13;;;12.90;99.90;;;;;;5013327;28;20424;-56
2021/11/07 14:15:36;;;;;;;1.57;1.20;;;12.80;99.90;;;;;;5014059;28;20395;-57
2021/11/07 14:18:13;;;;;;;1.67;1.20;;;12.60;99.90;;;;;;5013594;28;20447;-54
2021/11/07 14:20:50;;;;;;;1.20;1.10;;;12.60;99.90;;;;;;5014306;28;20475;-56
2021/11/07 14:26:15;;;;;;;1.30;0.90;;;12.40;99.90;;;;;;5014567;28;20754;-57
2021/11/07 14:28:56;;;;;;;1.30;1.00;;;12.30;99.90;;;;;;5013013;28;20824;-58
2021/11/07 14:31:26;;;;;;;2.23;1.20;;;12.10;99.90;;;;;;5013769;28;20906;-56
2021/11/07 14:34:03;;;;;;;2.73;1.50;;;12.20;99.90;;;;;;5013498;28;20399;-57
2021/11/07 14:39:11;;;;;;;2.70;1.70;;;12.40;99.90;;;;;;5013312;28;20852;-58
2021/11/07 14:41:46;;;;;;;1.40;1.30;;;12.00;99.90;;;;;;5013928;28;20395;-55
2021/11/07 14:44:36;;;;;;;2.00;1.53;;;11.90;99.90;;;;;;5013475;28;20382;-58
2021/11/07 14:47:14;;;;;;;1.53;1.33;;;12.20;99.90;;;;;;5013195;28;20445;-57
2021/11/07 14:49:54;;;;;;;1.43;1.00;;;12.20;99.90;;;;;;5013414;28;20400;-58
2021/11/07 14:54:50;;;;;;;1.77;1.00;;;12.40;99.90;;;;;;5013274;28;20449;-57
2021/11/07 14:57:34;;;;;;;2.40;1.33;;;12.40;99.90;;;;;;5013889;28;20184;-57
2021/11/07 15:00:17;;;;;;;1.70;1.30;;;12.10;99.90;;;;;;5013765;28;20414;-58
2021/11/07 15:05:26;;;;;;;1.90;1.50;;;12.40;99.90;;;;;;5013238;28;20434;-55
2021/11/07 15:08:17;;;;;;;2.23;1.57;;;12.30;99.90;;;;;;5013084;28;20211;-57
2021/11/07 15:10:55;;;;;;;1.50;1.30;;;11.90;99.90;;;;;;5015510;28;20749;-58
2021/11/07 15:13:46;;;;;;;3.83;1.30;;;11.90;99.90;;;;;;5013519;28;20441;-55
2021/11/07 15:16:27;;;;;;;1.20;0.90;;;11.90;99.90;;;;;;5013368;28;20429;-52
2021/11/07 15:21:50;;;;;;;2.03;1.30;;;12.00;99.90;;;;;;5013410;28;20899;-58
2021/11/07 15:24:25;;;;;;;1.30;1.20;;;11.80;99.90;;;;;;5016019;28;20396;-58
2021/11/07 15:26:59;;;;;;;2.10;1.30;;;11.60;99.90;;;;;;5017547;28;20392;-56
2021/11/07 15:29:30;;;;;;;2.10;1.50;;;11.70;99.90;;;;;;5017132;28;20394;-58